createdAt,value
2022-09-06T00:00:19.018Z,54.33
2022-09-06T00:10:23.548Z,54.55
2022-09-06T00:20:27.639Z,54.51
2022-09-06T00:30:30.661Z,54.46
2022-09-06T00:40:35.644Z,53.60
2022-09-06T00:50:38.432Z,53.56
2022-09-06T01:00:42.797Z,54.04
2022-09-06T01:11:02.337Z,54.63
2022-09-06T01:21:19.257Z,54.97
2022-09-06T01:31:46.700Z,55.51
2022-09-06T01:41:49.316Z,54.90
2022-09-06T01:52:14.784Z,53.96
2022-09-06T02:02:40.191Z,54.04
2022-09-06T02:12:44.003Z,54.76
2022-09-06T02:22:51.586Z,54.76
2022-09-06T02:33:00.629Z,56.08
2022-09-06T02:43:04.136Z,57.13
2022-09-06T02:53:11.650Z,57.88
2022-09-06T03:03:17.116Z,58.11
2022-09-06T03:13:19.455Z,58.52
2022-09-06T03:23:28.065Z,58.89
2022-09-06T03:33:33.779Z,58.22
2022-09-06T03:43:35.998Z,58.20
2022-09-06T03:53:40.519Z,58.52
2022-09-06T04:03:47.788Z,58.31
2022-09-06T04:13:50.063Z,56.16
2022-09-06T04:23:52.097Z,53.79
2022-09-06T04:33:58.876Z,51.59
2022-09-06T04:44:02.644Z,47.76
2022-09-06T04:54:07.623Z,46.74
2022-09-06T05:04:11.897Z,45.80
2022-09-06T05:14:20.864Z,44.50
2022-09-06T05:24:39.105Z,43.50
2022-09-06T05:34:43.502Z,41.11
2022-09-06T05:44:48.307Z,40.29
2022-09-06T05:54:53.182Z,40.05
2022-09-06T06:04:58.483Z,38.24
2022-09-06T06:15:01.832Z,37.79
2022-09-06T06:25:08.709Z,37.63
2022-09-06T06:35:14.634Z,37.24
2022-09-06T06:45:20.499Z,36.38
2022-09-06T06:55:23.123Z,36.24
2022-09-06T07:16:11.646Z,36.33
2022-09-06T07:26:18.682Z,35.68
2022-09-06T07:36:20.866Z,34.31
2022-09-06T07:46:27.468Z,33.30
2022-09-06T07:56:30.727Z,32.08
2022-09-06T08:17:03.198Z,31.16
2022-09-06T08:27:09.127Z,31.91
2022-09-06T08:37:17.237Z,31.64
2022-09-06T08:47:23.421Z,31.11
2022-09-06T08:57:40.519Z,31.64
2022-09-06T09:07:52.662Z,31.35
2022-09-06T09:17:57.565Z,32.37
2022-09-06T09:28:04.631Z,31.86
2022-09-06T09:38:11.496Z,31.33
2022-09-06T09:48:24.961Z,32.21
2022-09-06T09:58:50.513Z,31.56
2022-09-06T10:08:55.796Z,32.00
2022-09-06T10:18:58.100Z,31.74
2022-09-06T10:29:05.710Z,31.31
2022-09-06T10:39:15.617Z,31.13
2022-09-06T10:49:19.787Z,31.15
2022-09-06T11:09:45.178Z,30.78
2022-09-06T11:20:08.068Z,30.75
2022-09-06T11:30:15.037Z,30.36
2022-09-06T11:40:27.685Z,30.34
2022-09-06T11:51:01.389Z,30.16
2022-09-06T12:01:12.743Z,29.99
2022-09-06T12:11:39.525Z,29.84
2022-09-06T12:21:46.430Z,29.25
2022-09-06T12:31:58.878Z,28.97
2022-09-06T12:42:07.975Z,28.63
2022-09-06T12:52:21.262Z,28.49
2022-09-06T13:02:43.702Z,28.67
2022-09-06T13:12:50.834Z,28.47
2022-09-06T13:22:54.400Z,28.16
2022-09-06T13:32:56.465Z,27.98
2022-09-06T13:43:01.881Z,27.94
2022-09-06T13:53:09.049Z,28.01
2022-09-06T14:03:17.208Z,28.15
2022-09-06T14:13:20.451Z,28.21
2022-09-06T14:23:23.526Z,28.26
2022-09-06T14:33:26.618Z,28.52
2022-09-06T14:43:28.793Z,28.44
2022-09-06T14:53:40.550Z,28.38
2022-09-06T15:03:47.910Z,28.71
2022-09-06T15:13:52.098Z,28.61
2022-09-06T15:23:58.156Z,28.88
2022-09-06T15:34:03.007Z,28.88
2022-09-06T15:44:11.139Z,29.19
2022-09-06T15:54:15.986Z,29.28
2022-09-06T16:04:20.142Z,29.29
2022-09-06T16:14:32.452Z,29.02
2022-09-06T16:24:36.831Z,29.32
2022-09-06T16:34:38.924Z,29.42
2022-09-06T16:44:41.507Z,29.51
2022-09-06T16:54:46.065Z,29.71
2022-09-06T17:04:50.523Z,30.05
2022-09-06T17:15:03.208Z,30.21
2022-09-06T17:25:08.175Z,30.55
2022-09-06T17:35:10.862Z,30.58
2022-09-06T17:45:12.982Z,30.78
2022-09-06T17:55:19.345Z,31.07
2022-09-06T18:05:21.811Z,31.38
2022-09-06T18:15:28.831Z,31.26
2022-09-06T18:25:33.675Z,31.23
2022-09-06T18:35:44.189Z,31.72
2022-09-06T18:45:53.328Z,32.04
2022-09-06T18:55:55.541Z,31.81
2022-09-06T19:06:10.323Z,31.91
2022-09-06T19:16:16.371Z,32.52
2022-09-06T19:26:20.894Z,32.49
2022-09-06T19:36:24.851Z,32.30
2022-09-06T19:46:29.634Z,32.87
2022-09-06T19:56:35.263Z,33.42
2022-09-06T20:06:38.081Z,33.79
2022-09-06T20:16:42.269Z,34.15
2022-09-06T20:26:51.090Z,34.74
2022-09-06T20:36:57.743Z,35.01
2022-09-06T20:47:01.219Z,35.10
2022-09-06T20:57:08.282Z,35.26
2022-09-06T21:07:10.481Z,35.54
2022-09-06T21:17:17.110Z,35.51
2022-09-06T21:27:21.541Z,35.98
2022-09-06T21:37:27.275Z,36.75
2022-09-06T21:47:32.344Z,37.39
2022-09-06T21:57:34.570Z,37.66
2022-09-06T22:07:41.273Z,38.09
2022-09-06T22:17:45.934Z,38.50
2022-09-06T22:27:53.325Z,38.94
2022-09-06T22:38:00.099Z,39.51
2022-09-06T22:48:04.824Z,39.39
2022-09-06T22:58:09.923Z,39.64
2022-09-06T23:08:12.168Z,39.96
2022-09-06T23:18:19.255Z,40.00
2022-09-06T23:28:21.636Z,40.54
2022-09-06T23:38:24.386Z,40.96
2022-09-06T23:48:29.209Z,41.43
2022-09-06T23:58:39.310Z,41.62
